Nearby METAR Reports

 

KIMT - Iron Mountain, Michigan, USA
Distance from station: 0 29mi, 47km
Updated: Thu, 28-Oct-2021 1:54am CDT
Mist, Overcast
Mist, Overcast
 Wind from calm
Wind: Calm
Temperature: 45°F , 7°C
Dew Point: 43°F , 6°C
Humidity: 93%
Barometer: 29.86 inHg , 1011.2 hPa
Summary: Mist
Clouds: Overcast
Visibility: 4 miles , 6 km
Cloud details: Mostly cloudy 800 ft
Overcast 1400 ft
2021/10/28 06:54 KIMT 280654Z AUTO 00000KT 4SM BR BKN008 OVC014 07/06 A2986 RMK AO2 CIG 006V010 SLP120 T00720056
KMNM - Menominee, Michigan, USA
Distance from station: SE 31mi, 51km
Updated: Thu, 28-Oct-2021 2:04am CDT
Light rain, Overcast
Light rain, Overcast
 Wind from SSE
Wind: SSE 7 mph , 11 km/h
Temperature: 50°F , 10°C
Wind Chill: 47°F , 8°C
Dew Point: 50°F , 10°C
Humidity: 100%
Barometer: 29.88 inHg , 1011.9 hPa
Summary: Light rain
Clouds: Overcast
Visibility: 10 miles , 16 km
Cloud details: Mostly cloudy 900 ft
Overcast 1700 ft
2021/10/28 07:04 KMNM 280704Z AUTO 16006KT 10SM -RA BKN009 OVC017 10/10 A2988 RMK AO2 CIG 007V014 P0000 $
 
KOCQ - Oconto, Wisconsin, USA
Distance from station: SSE 38mi, 61km
Updated: Thu, 28-Oct-2021 1:55am CDT
Overcast
Overcast
 Wind from SE
Wind: SE 3 mph , 6 km/h
Temperature: 50°F , 10°C
Dew Point: 48°F , 9°C
Humidity: 94%
Barometer: 29.86 inHg , 1011.2 hPa
Clouds: Overcast
Visibility: 10 miles , 16 km
Cloud details: Overcast 2000 ft
2021/10/28 06:55 KOCQ 280655Z AUTO 14003KT 10SM OVC020 10/09 A2986 RMK AO1 T00950093
KEZS - Shawano Muni, Wisconsin, USA
Distance from station: SSW 48mi, 77km
Updated: Thu, 28-Oct-2021 2:15am CDT
Overcast
Overcast
 Wind from ENE
Wind: ENE 7 mph , 11 km/h
Temperature: 48°F , 9°C
Wind Chill: 45°F , 7°C
Dew Point: 48°F , 9°C
Humidity: 100%
Barometer: 29.84 inHg , 1010.5 hPa
Clouds: Overcast
Visibility: 10 miles , 16 km
Cloud details: Mostly cloudy 400 ft
Overcast 2000 ft
2021/10/28 07:15 KEZS 280715Z AUTO 07006KT 10SM BKN004 OVC020 09/09 A2984 RMK AO2 T00880085
 
KAIG - Antigo/Langlade, Wisconsin, USA
Distance from station: WSW 51mi, 82km
Updated: Thu, 28-Oct-2021 1:55am CDT
Mist, Overcast
Mist, Overcast
 Wind from E
Wind: E 5 mph , 7 km/h
Temperature: 41°F , 5°C
Wind Chill: 38°F , 3°C
Dew Point: 41°F , 5°C
Humidity: 100%
Barometer: 29.84 inHg , 1010.5 hPa
Summary: Mist
Clouds: Overcast
Visibility: 3 miles , 5 km
Cloud details: Overcast 500 ft
2021/10/28 06:55 KAIG 280655Z AUTO 10004KT 3SM BR OVC005 05/05 A2984 RMK AO2 T00530053
KSUE - Sturgeon Bay, Wisconsin, USA
Distance from station: SE 51mi, 82km
Updated: Thu, 28-Oct-2021 1:56am CDT
Overcast
Overcast
 Wind from SE
Wind: SE 7 mph , 11 km/h
Temperature: 52°F , 11°C
Dew Point: 48°F , 9°C
Humidity: 88%
Barometer: 29.88 inHg , 1011.9 hPa
Clouds: Overcast
Visibility: 10 miles , 16 km
Cloud details: Overcast 1300 ft
2021/10/28 06:56 KSUE 280656Z AUTO 13006KT 10SM OVC013 11/09 A2988 RMK AO2 RAE33 SLP118 P0000 T01060089 $
 
KESC - Escanaba, Michigan, USA
Distance from station: ENE 56mi, 90km
Updated: Thu, 28-Oct-2021 1:56am CDT
Overcast
Overcast
 Wind from SE
Wind: SE 12 mph , 19 km/h
Temperature: 52°F , 11°C
Dew Point: 46°F , 8°C
Humidity: 82%
Barometer: 29.89 inHg , 1012.2 hPa
Clouds: Overcast
Visibility: 10 miles , 16 km
Cloud details: Overcast 1500 ft
2021/10/28 06:56 KESC 280656Z AUTO 14010KT 10SM OVC015 11/08 A2989 RMK AO2 SLP129 T01110083 $
KCLI - Clintonville, Wisconsin, USA
Distance from station: SSW 62mi, 99km
Updated: Fri, 27-Aug-2021 6:55pm CDT
NOT Current
Heavy rain, Overcast
Heavy rain, Overcast
 Wind from WNW
Wind: WNW 3 mph , 6 km/h
Temperature: 73°F , 23°C
Dew Point: 70°F , 21°C
Humidity: 89%
Barometer: 30.02 inHg , 1016.6 hPa
Summary: Heavy rain
Clouds: Overcast
Visibility: 1 1/2 miles , 2.4 km
Cloud details: Partly cloudy 1300 ft
Overcast 2300 ft
2021/08/27 23:55 KCLI 272355Z AUTO 30003KT 1 1/2SM +RA SCT013 OVC023 23/21 A3002 RMK AO2 P0001 6//// T02260208
 
KGRB - Ashwaubenon, Wisconsin, USA
Distance from station: S 63mi, 102km
Updated: Thu, 28-Oct-2021 1:53am CDT
Overcast
Overcast
 Wind from ENE
Wind: ENE 7 mph , 11 km/h
Temperature: 50°F , 10°C
Wind Chill: 47°F , 8°C
Dew Point: 45°F , 7°C
Humidity: 82%
Barometer: 29.84 inHg , 1010.5 hPa
Clouds: Overcast
Visibility: 10 miles , 16 km
Cloud details: Overcast 2000 ft
2021/10/28 06:53 KGRB 280653Z AUTO 07006KT 10SM OVC020 10/07 A2984 RMK AO2 SLP108 T01000072
KEGV - Eagle River, Wisconsin, USA
Distance from station: NW 66mi, 107km
Updated: Thu, 28-Oct-2021 1:55am CDT
Overcast
Overcast
 Wind from SSE
Wind: SSE 3 mph , 6 km/h
Temperature: 43°F , 6°C
Dew Point: 41°F , 5°C
Humidity: 93%
Barometer: 29.84 inHg , 1010.5 hPa
Clouds: Overcast
Visibility: 7 miles , 11 km
Cloud details: Overcast 1000 ft
2021/10/28 06:55 KEGV 280655Z AUTO 15003KT 7SM OVC010 06/05 A2984 RMK AO2 T00550051
 
KRHI - Rhinelander, Wisconsin, USA
Distance from station: WNW 68mi, 109km
Updated: Thu, 28-Oct-2021 1:53am CDT
Overcast
Overcast
 Wind from SE
Wind: SE 5 mph , 7 km/h
Temperature: 43°F , 6°C
Wind Chill: 40°F , 4°C
Dew Point: 39°F , 4°C
Humidity: 87%
Barometer: 29.84 inHg , 1010.5 hPa
Clouds: Overcast
Visibility: 10 miles , 16 km
Cloud details: Overcast 1000 ft
2021/10/28 06:53 KRHI 280653Z AUTO 13004KT 10SM OVC010 06/04 A2984 RMK AO2 CIG 007V012 SLP114 T00560039 $
KLNL - Land O Lakes, Wisconsin, USA
Distance from station: NW 74mi, 119km
Updated: Thu, 28-Oct-2021 1:55am CDT
Overcast
Overcast
 Wind from S
Wind: S 5 mph , 7 km/h
Temperature: 43°F , 6°C
Wind Chill: 40°F , 4°C
Dew Point: 39°F , 4°C
Humidity: 87%
Barometer: 29.87 inHg , 1011.5 hPa
Clouds: Overcast
Visibility: 10 miles , 16 km
Cloud details: Overcast 1000 ft
2021/10/28 06:55 KLNL 280655Z AUTO 17004KT 10SM OVC010 06/04 A2987 RMK AO2 T00600041
 
KSAW - Gwinn/Sawyer, Michigan, USA
Distance from station: NNE 74mi, 120km
Updated: Thu, 28-Oct-2021 1:58am CDT
Light rain, Overcast
Light rain, Overcast
 Wind from SSE
Wind: SSE 5 mph , 7 km/h
Temperature: 45°F , 7°C
Wind Chill: 42°F , 6°C
Dew Point: 43°F , 6°C
Humidity: 93%
Barometer: 29.88 inHg , 1011.9 hPa
Summary: Light rain
Clouds: Overcast
Visibility: 4 miles , 6 km
Cloud details: Overcast 500 ft
2021/10/28 06:58 KSAW 280658Z AUTO 15004KT 4SM -RA OVC005 07/06 A2988 RMK AO2 T00730063 P0001